Kane, PA

11:14 AM EST on January 16, 2017 (GMT -0500)
Division Street Ext. | | Change Station
Active Advisory: Freezing Rain Advisory

Elev 2245 ft 41.70 °N, 78.64 °W | Updated 20 minutes ago

Partly Cloudy
Partly Cloudy
41.9 °F
Feels Like 42 °F
N
0.9
Wind Variable Wind from WSW
Gusts 1.8 mph

Today
High -- | Low -- °F
--% Chance of Precip.
Yesterday
High -- | Low -- °F
Precip. -- in
Pressure 30.39 in
Visibility 10.0 miles
Clouds Clear
Windchill 42 °F
Dew Point 23 °F
Humidity 47%
Rainfall 0.00 in
Snow Depth Not available.
7:39 AM 5:11 PM
Waning Gibbous, 80% visible
METAR KBFD 161553Z AUTO 00000KT 10SM CLR 01/M07 A3031 RMK AO2 SLP289 T00061067
Pressure 30.39 in
Visibility 10.0 miles
Clouds Clear
Windchill 42 °F
Dew Point 23 °F
Humidity 47%
Rainfall 0.00 in
Snow Depth Not available.
7:39 AM 5:11 PM
Waning Gibbous, 80% visible
METAR KBFD 161553Z AUTO 00000KT 10SM CLR 01/M07 A3031 RMK AO2 SLP289 T00061067

Get Your Daily Forecast Email!

Thanks for signing up!

Be on the lookout for a verification email in your inbox.

You'll start receiving the daily forecast at 8 AM.

×

10-Day Weather Forecast

Almanac

Astronomy

Jan. 16, 2017 Rise Set
Actual Time
Civil Twilight
Nautical Twilight
Astronomical Twilight
Moon
Length of Visible Light
Length of Day
Tomorrow will be .
, % of the Moon is Illuminated

Today's Extremes

State Highs State Lows

Community

WunderPhotos

Upload Photos

1,962,540 photos uploaded!

WunderBlog® & News

Nearby

Air Quality

  Air Quality AQ Index Pollutant
Not available.

Snow Depth

Station Depth Elevation

Earthquake Activity

City Distance Mag. Time & Date
Minimum magnitude displayed is 2.5.

Coastal Water Temperatures

Place Temperature

Stations

Nearby Weather Stations

Station Location Temp. Windchill Dew Point Humidity Wind Precip. Elev Updated Type
                   

Watches & Warnings

Freezing Rain Advisory
Issued: 3:54 AM EST Jan. 16, 2017 – National Weather Service

... Freezing Rain Advisory in effect from midnight tonight to
10 am EST Tuesday...

The National Weather Service in State College has issued a
Freezing Rain Advisory... which is in effect from midnight tonight
to 10 am EST Tuesday.

* Light freezing rain developing late tonight into Tuesday
morning.

* Ice accumulation of a light glaze to few hundreths of an inch.

* Icy spots on untreated roads will result in areas of hazardous
travel. Sidewalks and parking lots may also be slippery.

* Longer commute times early Tuesday morning with delays
possible.

* Freezing rain threat ends late Tuesday morning as temperatures
rise above 32 degrees.

Precautionary/preparedness actions...

The Pennsylvania Department of Transportation reminds motorists
to adjust speeds based on driving conditions and to take it slow
in ice and snow.


MS/bl